Time;durP1;ratioP1;P1;durP2;ratioP2;P2;SDS_P1;SDS_P2;PMS_P1;PMS_P2;Temp;Humidity;BMP_temperature;BMP_pressure;BME280_temperature;BME280_humidity;BME280_pressure;Samples;Min_cycle;Max_cycle;Signal;HPM_P1;HPM_P2
2022/11/25 00:00:07;;;;;;;;;;;8.90;99.90;;;;;;5001928;28;19965;-72
2022/11/25 00:02:32;;;;;;;;;;;8.90;99.90;;;;;;5000505;28;20423;-72
2022/11/25 00:04:58;;;;;;;;;;;8.90;99.90;;;;;;5003172;28;20020;-70
2022/11/25 00:07:23;;;;;;;;;;;8.90;99.90;;;;;;4999731;28;19964;-71
2022/11/25 00:09:49;;;;;;;;;;;8.90;99.90;;;;;;5002421;28;19913;-72
2022/11/25 00:12:14;;;;;;;;;;;8.90;99.90;;;;;;5000106;28;19917;-71
2022/11/25 00:14:40;;;;;;;;;;;8.90;99.90;;;;;;5003614;28;20394;-69
2022/11/25 00:17:05;;;;;;;;;;;8.90;99.90;;;;;;4998795;28;19932;-72
2022/11/25 00:19:31;;;;;;;;;;;8.90;99.90;;;;;;5000905;28;19917;-71
2022/11/25 00:21:56;;;;;;;;;;;8.90;99.90;;;;;;4997934;28;20024;-71
2022/11/25 00:24:21;;;;;;;;;;;8.90;99.90;;;;;;4983698;28;19917;-71
2022/11/25 00:26:47;;;;;;;;;;;8.90;99.90;;;;;;5001829;28;19921;-69
2022/11/25 00:29:13;;;;;;;;;;;8.90;99.90;;;;;;4999021;28;20066;-71
2022/11/25 00:31:39;;;;;;;;;;;8.90;99.90;;;;;;5001342;28;19913;-72
2022/11/25 00:34:06;;;;;;;;;;;8.90;99.90;;;;;;4999491;28;19913;-70
2022/11/25 00:36:32;;;;;;;;;;;8.90;99.90;;;;;;4982335;28;19925;-71
2022/11/25 00:39:11;;;;;;;;;;;8.90;99.90;;;;;;5006874;28;19909;-70
2022/11/25 00:44:36;;;;;;;;;;;8.90;99.90;;;;;;4998176;28;19916;-71
2022/11/25 00:47:03;;;;;;;;;;;8.90;99.90;;;;;;4986994;28;19919;-72
2022/11/25 00:49:30;;;;;;;;;;;8.90;99.90;;;;;;5001511;28;19920;-71
2022/11/25 00:51:55;;;;;;;;;;;8.90;99.90;;;;;;4999011;28;19921;-72
2022/11/25 00:54:21;;;;;;;;;;;9.00;99.90;;;;;;5002132;28;19914;-72
2022/11/25 00:56:46;;;;;;;;;;;9.00;99.90;;;;;;5000020;28;19913;-71
2022/11/25 00:59:12;;;;;;;;;;;9.00;99.90;;;;;;4983383;28;19996;-69
2022/11/25 01:01:37;;;;;;;;;;;9.00;99.90;;;;;;5001084;28;20361;-71
2022/11/25 01:04:03;;;;;;;;;;;9.00;99.90;;;;;;4999372;28;19918;-71
2022/11/25 01:06:28;;;;;;;;;;;9.00;99.90;;;;;;5001085;28;19967;-71
2022/11/25 01:08:54;;;;;;;;;;;9.00;99.90;;;;;;4980651;28;19922;-71
2022/11/25 01:11:21;;;;;;;;;;;9.10;99.90;;;;;;4981154;28;20000;-71
2022/11/25 01:13:46;;;;;;;;;;;9.00;99.90;;;;;;5001776;28;20187;-70
2022/11/25 01:16:16;;;;;;;;;;;9.10;99.90;;;;;;4998818;28;19913;-71
2022/11/25 01:18:43;;;;;;;;;;;9.10;99.90;;;;;;5000460;28;19913;-70
2022/11/25 01:21:22;;;;;;;;;;;9.10;99.90;;;;;;4998809;28;19917;-71
2022/11/25 01:23:48;;;;;;;;;;;9.10;99.90;;;;;;5001685;28;20366;-72
2022/11/25 01:26:14;;;;;;;;;;;9.10;99.90;;;;;;5000278;28;19925;-71
2022/11/25 01:28:40;;;;;;;;;;;9.10;99.90;;;;;;5000538;28;19913;-72
2022/11/25 01:31:10;;;;;;;;;;;9.10;99.90;;;;;;5000172;28;19920;-72
2022/11/25 01:33:36;;;;;;;;;;;9.10;99.90;;;;;;5002374;28;19945;-72
2022/11/25 01:36:06;;;;;;;;;;;9.10;99.90;;;;;;5008001;28;19961;-72
2022/11/25 01:38:31;;;;;;;;;;;9.10;99.90;;;;;;5006946;28;20450;-71
2022/11/25 01:40:57;;;;;;;;;;;9.10;99.90;;;;;;5001166;28;19924;-71
2022/11/25 01:43:23;;;;;;;;;;;9.10;99.90;;;;;;5001125;28;19916;-72
2022/11/25 01:45:49;;;;;;;;;;;9.10;99.90;;;;;;4997854;28;19916;-74
2022/11/25 01:48:14;;;;;;;;;;;9.20;99.90;;;;;;5002752;28;20691;-72
2022/11/25 01:50:41;;;;;;;;;;;9.10;99.90;;;;;;4981918;28;19932;-71
2022/11/25 01:53:07;;;;;;;;;;;9.10;99.90;;;;;;4999267;28;20304;-72
2022/11/25 01:55:34;;;;;;;;;;;9.10;99.90;;;;;;5000909;28;19917;-70
2022/11/25 01:58:14;;;;;;;;;;;9.10;99.90;;;;;;4982938;28;19936;-72
2022/11/25 02:00:40;;;;;;;;;;;9.10;99.90;;;;;;5000433;28;20008;-72
2022/11/25 02:03:06;;;;;;;;;;;9.10;99.90;;;;;;5000750;28;20001;-72
2022/11/25 02:05:38;;;;;;;;;;;9.10;99.90;;;;;;5000060;28;19910;-71
2022/11/25 02:08:04;;;;;;;;;;;9.10;99.90;;;;;;4997927;28;20336;-71
2022/11/25 02:10:31;;;;;;;;;;;9.10;99.90;;;;;;4998723;28;19921;-72
2022/11/25 02:12:57;;;;;;;;;;;9.10;99.90;;;;;;4999174;28;19917;-72
2022/11/25 02:15:22;;;;;;;;;;;9.10;99.90;;;;;;4997008;28;20012;-71
2022/11/25 02:17:48;;;;;;;;;;;9.10;99.90;;;;;;5001345;28;19909;-71
2022/11/25 02:20:18;;;;;;;;;;;9.10;99.90;;;;;;4979530;28;20281;-71
2022/11/25 02:22:59;;;;;;;;;;;9.10;99.90;;;;;;5000671;28;19913;-71
2022/11/25 02:25:26;;;;;;;;;;;9.00;99.90;;;;;;4999087;28;19924;-72
2022/11/25 02:27:57;;;;;;;;;;;9.00;99.90;;;;;;5000430;28;19916;-72
2022/11/25 02:30:23;;;;;;;;;;;9.00;99.90;;;;;;4998372;28;19953;-70
2022/11/25 02:32:48;;;;;;;;;;;9.10;99.90;;;;;;5012447;28;19916;-72
2022/11/25 02:35:20;;;;;;;;;;;9.10;99.90;;;;;;5021744;28;20488;-71
2022/11/25 02:37:45;;;;;;;;;;;9.10;99.90;;;;;;5000040;28;19910;-71
2022/11/25 02:40:12;;;;;;;;;;;9.10;99.90;;;;;;5002670;28;19921;-71
2022/11/25 02:42:37;;;;;;;;;;;9.10;99.90;;;;;;4989168;28;20678;-71
2022/11/25 02:45:03;;;;;;;;;;;9.10;99.90;;;;;;5001182;28;19945;-71
2022/11/25 02:47:29;;;;;;;;;;;9.10;99.90;;;;;;4999806;28;19996;-71
2022/11/25 02:49:54;;;;;;;;;;;9.10;99.90;;;;;;4998905;28;19992;-72
2022/11/25 02:52:20;;;;;;;;;;;9.10;99.90;;;;;;5000835;28;19910;-70
2022/11/25 02:54:45;;;;;;;;;;;9.10;99.90;;;;;;4997727;28;19969;-70
2022/11/25 02:57:11;;;;;;;;;;;9.10;99.90;;;;;;4996842;28;19913;-73
2022/11/25 02:59:36;;;;;;;;;;;9.10;99.90;;;;;;4984157;28;19913;-72
2022/11/25 03:02:03;;;;;;;;;;;9.00;99.90;;;;;;4998956;28;20373;-71
2022/11/25 03:04:28;;;;;;;;;;;9.10;99.90;;;;;;4998501;28;20358;-71
2022/11/25 03:06:54;;;;;;;;;;;9.10;99.90;;;;;;4984861;28;19916;-70
2022/11/25 03:09:19;;;;;;;;;;;9.10;99.90;;;;;;5000108;28;20336;-72
2022/11/25 03:14:29;;;;;;;;;;;9.10;99.90;;;;;;4997874;28;19921;-72
2022/11/25 03:16:54;;;;;;;;;;;9.10;99.90;;;;;;4999499;28;20281;-72
2022/11/25 03:19:20;;;;;;;;;;;9.10;99.90;;;;;;4979663;28;19949;-71
2022/11/25 03:21:45;;;;;;;;;;;9.10;99.90;;;;;;4979152;28;19914;-72
2022/11/25 03:24:11;;;;;;;;;;;9.10;99.90;;;;;;4999465;28;20087;-71
2022/11/25 03:26:36;;;;;;;;;;;9.10;99.90;;;;;;4984318;28;19972;-72
2022/11/25 03:29:02;;;;;;;;;;;9.10;99.90;;;;;;5002547;28;19910;-71
2022/11/25 03:31:27;;;;;;;;;;;9.00;99.90;;;;;;4989015;28;19951;-72
2022/11/25 03:33:54;;;;;;;;;;;9.00;99.90;;;;;;4980780;28;19913;-71
2022/11/25 03:36:19;;;;;;;;;;;9.00;99.90;;;;;;4999486;28;19909;-71
2022/11/25 03:38:45;;;;;;;;;;;9.10;99.90;;;;;;4997455;28;20362;-71
2022/11/25 03:41:10;;;;;;;;;;;9.00;99.90;;;;;;4981813;28;19979;-71
2022/11/25 03:43:36;;;;;;;;;;;9.10;99.90;;;;;;4997618;28;19921;-72
2022/11/25 03:46:01;;;;;;;;;;;9.00;99.90;;;;;;4998575;28;20385;-72
2022/11/25 03:48:27;;;;;;;;;;;9.00;99.90;;;;;;5003659;28;19909;-73
2022/11/25 03:50:52;;;;;;;;;;;9.00;99.90;;;;;;4996880;28;19910;-72
2022/11/25 03:53:18;;;;;;;;;;;9.00;99.90;;;;;;5001893;28;19917;-72
2022/11/25 03:55:46;;;;;;;;;;;9.00;99.90;;;;;;5000887;28;19925;-71
2022/11/25 03:58:11;;;;;;;;;;;9.00;99.90;;;;;;4999860;28;19922;-73
2022/11/25 04:00:37;;;;;;;;;;;9.00;99.90;;;;;;5003612;28;19940;-72
2022/11/25 04:03:03;;;;;;;;;;;9.00;99.90;;;;;;4983101;28;20354;-71
2022/11/25 04:05:28;;;;;;;;;;;9.00;99.90;;;;;;4984117;28;19968;-72
2022/11/25 04:07:54;;;;;;;;;;;9.00;99.90;;;;;;4984501;28;19913;-73
2022/11/25 04:10:19;;;;;;;;;;;9.00;99.90;;;;;;5000585;28;19918;-72
2022/11/25 04:12:48;;;;;;;;;;;9.00;99.90;;;;;;5003042;28;19945;-72
2022/11/25 04:15:15;;;;;;;;;;;9.00;99.90;;;;;;4999187;28;19910;-73
2022/11/25 04:17:40;;;;;;;;;;;8.90;99.90;;;;;;4985877;28;19925;-72
2022/11/25 04:20:06;;;;;;;;;;;8.90;99.90;;;;;;4999169;28;19968;-73
2022/11/25 04:22:32;;;;;;;;;;;8.90;99.90;;;;;;5002302;28;19917;-73
2022/11/25 04:24:57;;;;;;;;;;;8.90;99.90;;;;;;5001412;28;20000;-72
2022/11/25 04:27:23;;;;;;;;;;;8.90;99.90;;;;;;5012029;28;19913;-72
2022/11/25 04:29:48;;;;;;;;;;;8.80;99.90;;;;;;5001476;28;19960;-72
2022/11/25 04:32:14;;;;;;;;;;;8.80;99.90;;;;;;5002414;28;20020;-70
2022/11/25 04:34:39;;;;;;;;;;;8.70;99.90;;;;;;4982134;28;20385;-72
2022/11/25 04:37:05;;;;;;;;;;;8.70;99.90;;;;;;4985438;28;19933;-72
2022/11/25 04:39:30;;;;;;;;;;;8.70;99.90;;;;;;5001002;28;20287;-73
2022/11/25 04:42:30;;;;;;;;;;;8.70;99.90;;;;;;4983758;28;19918;-72
2022/11/25 04:44:41;;;;;;;;;;;8.60;99.90;;;;;;4999093;28;19914;-73
2022/11/25 04:47:07;;;;;;;;;;;8.50;99.90;;;;;;5002137;28;20393;-70
2022/11/25 04:49:32;;;;;;;;;;;8.50;99.90;;;;;;5002709;28;19976;-73
2022/11/25 04:51:58;;;;;;;;;;;8.50;99.90;;;;;;5000116;28;19979;-72
2022/11/25 04:54:23;;;;;;;;;;;8.50;99.90;;;;;;5000646;28;19945;-71
2022/11/25 04:56:49;;;;;;;;;;;8.40;99.90;;;;;;5001874;28;19920;-73
2022/11/25 05:01:59;;;;;;;;;;;8.40;99.90;;;;;;4999353;28;20337;-71
2022/11/25 05:04:24;;;;;;;;;;;8.30;99.90;;;;;;4999902;28;19910;-71
2022/11/25 05:06:50;;;;;;;;;;;8.30;99.90;;;;;;4983687;28;19913;-72
2022/11/25 05:09:16;;;;;;;;;;;8.30;99.90;;;;;;4999177;28;19921;-71
2022/11/25 05:11:41;;;;;;;;;;;8.30;99.90;;;;;;5002110;28;19913;-72
2022/11/25 05:14:07;;;;;;;;;;;8.30;99.90;;;;;;5001178;28;19909;-73
2022/11/25 05:16:32;;;;;;;;;;;8.20;99.90;;;;;;4999425;28;19925;-72
2022/11/25 05:18:58;;;;;;;;;;;8.20;99.90;;;;;;5003748;28;20044;-71
2022/11/25 05:21:23;;;;;;;;;;;8.20;99.90;;;;;;5002772;28;20549;-73
2022/11/25 05:23:49;;;;;;;;;;;8.20;99.90;;;;;;4984737;28;19913;-72
2022/11/25 05:26:14;;;;;;;;;;;8.20;99.90;;;;;;5002571;28;20640;-71
2022/11/25 05:28:40;;;;;;;;;;;8.20;99.90;;;;;;5002399;28;19920;-71
2022/11/25 05:31:05;;;;;;;;;;;8.10;99.90;;;;;;5001988;28;20421;-69
2022/11/25 05:33:31;;;;;;;;;;;8.10;99.90;;;;;;4983862;28;20008;-71
2022/11/25 05:35:58;;;;;;;;;;;8.10;99.90;;;;;;4999570;28;20250;-72
2022/11/25 05:38:23;;;;;;;;;;;8.10;99.90;;;;;;4982361;28;19913;-72
2022/11/25 05:40:49;;;;;;;;;;;8.10;99.90;;;;;;5000587;28;19917;-71
2022/11/25 05:43:15;;;;;;;;;;;8.10;99.90;;;;;;4997657;28;20004;-71
2022/11/25 05:45:40;;;;;;;;;;;8.10;99.90;;;;;;4984744;28;20408;-71
2022/11/25 05:48:06;;;;;;;;;;;8.10;99.90;;;;;;5001384;28;19909;-73
2022/11/25 05:50:31;;;;;;;;;;;8.10;99.90;;;;;;4998187;28;19917;-72
2022/11/25 05:52:57;;;;;;;;;;;8.10;99.90;;;;;;5004665;28;20298;-72
2022/11/25 05:55:22;;;;;;;;;;;8.10;99.90;;;;;;4989690;28;19914;-70
2022/11/25 05:57:48;;;;;;;;;;;8.10;99.90;;;;;;5002024;28;19996;-72
2022/11/25 06:00:13;;;;;;;;;;;8.00;99.90;;;;;;5000375;28;19917;-71
2022/11/25 06:02:39;;;;;;;;;;;8.00;99.90;;;;;;4998367;28;20401;-72
2022/11/25 06:05:04;;;;;;;;;;;8.10;99.90;;;;;;5001188;28;19941;-73
2022/11/25 06:07:30;;;;;;;;;;;8.00;99.90;;;;;;4998056;28;19914;-71
2022/11/25 06:09:55;;;;;;;;;;;8.00;99.90;;;;;;5003054;28;20321;-72
2022/11/25 06:12:21;;;;;;;;;;;8.00;99.90;;;;;;4981939;28;19920;-71
2022/11/25 06:14:46;;;;;;;;;;;8.00;99.90;;;;;;4982282;28;19932;-72
2022/11/25 06:17:12;;;;;;;;;;;8.00;99.90;;;;;;5003584;28;20355;-72
2022/11/25 06:19:37;;;;;;;;;;;8.00;99.90;;;;;;4990744;28;19924;-71
2022/11/25 06:22:03;;;;;;;;;;;8.00;99.90;;;;;;5000850;28;19917;-72
2022/11/25 06:24:29;;;;;;;;;;;8.00;99.90;;;;;;5003395;28;19909;-72
2022/11/25 06:26:54;;;;;;;;;;;8.00;99.90;;;;;;4984898;28;19918;-71
2022/11/25 06:29:20;;;;;;;;;;;7.90;99.90;;;;;;5000346;28;19921;-71
2022/11/25 06:31:48;;;;;;;;;;;7.90;99.90;;;;;;4981775;28;19914;-69
2022/11/25 06:34:13;;;;;;;;;;;7.90;99.90;;;;;;4999654;28;19917;-71
2022/11/25 06:36:38;;;;;;;;;;;7.90;99.90;;;;;;4980934;28;19983;-72
2022/11/25 06:39:04;;;;;;;;;;;7.90;99.90;;;;;;4997079;28;19921;-72
2022/11/25 06:41:29;;;;;;;;;;;7.90;99.90;;;;;;5000476;28;19923;-72
2022/11/25 06:43:55;;;;;;;;;;;7.80;99.90;;;;;;4985827;28;19922;-71
2022/11/25 06:46:20;;;;;;;;;;;7.80;99.90;;;;;;4983395;28;19909;-71
2022/11/25 06:48:46;;;;;;;;;;;7.80;99.90;;;;;;5001900;28;19914;-72
2022/11/25 06:51:13;;;;;;;;;;;7.80;99.90;;;;;;5012418;28;20416;-72
2022/11/25 06:53:39;;;;;;;;;;;7.70;99.90;;;;;;5014789;28;20310;-72
2022/11/25 06:56:14;;;;;;;;;;;7.70;99.90;;;;;;4995497;28;19944;-72
2022/11/25 06:58:41;;;;;;;;;;;7.80;99.90;;;;;;4981532;28;19909;-71
2022/11/25 07:01:12;;;;;;;;;;;7.70;99.90;;;;;;5001230;28;20333;-74
2022/11/25 07:03:37;;;;;;;;;;;7.70;99.90;;;;;;4980582;28;19957;-72
2022/11/25 07:06:03;;;;;;;;;;;7.70;99.90;;;;;;5000343;28;19953;-72
2022/11/25 07:08:29;;;;;;;;;;;7.70;99.90;;;;;;4996952;28;20251;-71
2022/11/25 07:10:54;;;;;;;;;;;7.70;99.90;;;;;;5000832;28;19925;-71
2022/11/25 07:13:20;;;;;;;;;;;7.60;99.90;;;;;;4997598;28;19914;-71
2022/11/25 07:15:46;;;;;;;;;;;7.70;99.90;;;;;;5002706;28;19913;-71
2022/11/25 07:18:11;;;;;;;;;;;7.70;99.90;;;;;;5001761;28;19929;-71
2022/11/25 07:20:37;;;;;;;;;;;7.60;99.90;;;;;;4980261;28;20274;-72
2022/11/25 07:23:03;;;;;;;;;;;7.60;99.90;;;;;;4996944;28;19957;-72
2022/11/25 07:25:29;;;;;;;;;;;7.60;99.90;;;;;;5005192;28;20384;-71
2022/11/25 07:27:54;;;;;;;;;;;7.60;99.90;;;;;;5000763;28;19914;-72
2022/11/25 07:30:20;;;;;;;;;;;7.60;99.90;;;;;;5002950;28;19910;-71
2022/11/25 07:32:45;;;;;;;;;;;7.60;99.90;;;;;;5000746;28;20005;-70
2022/11/25 07:35:11;;;;;;;;;;;7.50;99.90;;;;;;5001475;28;19928;-72
2022/11/25 07:37:37;;;;;;;;;;;7.50;99.90;;;;;;5001112;28;20353;-71
2022/11/25 07:40:03;;;;;;;;;;;7.50;99.90;;;;;;4986022;28;19914;-71
2022/11/25 07:42:28;;;;;;;;;;;7.50;99.90;;;;;;5001038;28;19924;-71
2022/11/25 07:44:54;;;;;;;;;;;7.50;99.90;;;;;;5003659;28;19917;-70
2022/11/25 07:47:19;;;;;;;;;;;7.60;99.90;;;;;;5001302;28;20314;-71
2022/11/25 07:49:44;;;;;;;;;;;7.60;99.90;;;;;;5002002;28;19909;-72
2022/11/25 07:52:10;;;;;;;;;;;7.50;99.90;;;;;;5001922;28;19913;-72
2022/11/25 07:54:35;;;;;;;;;;;7.50;99.90;;;;;;5000662;28;19914;-71
2022/11/25 07:57:01;;;;;;;;;;;7.50;99.90;;;;;;5006181;28;19913;-71
2022/11/25 07:59:26;;;;;;;;;;;7.60;99.90;;;;;;5001036;28;19921;-73
2022/11/25 08:01:53;;;;;;;;;;;7.60;99.90;;;;;;5006392;28;20433;-72
2022/11/25 08:04:18;;;;;;;;;;;7.60;99.90;;;;;;5002281;28;19914;-72
2022/11/25 08:06:45;;;;;;;;;;;7.60;99.90;;;;;;5002760;28;20042;-71
2022/11/25 08:09:11;;;;;;;;;;;7.60;99.90;;;;;;5003829;28;19917;-70
2022/11/25 08:11:37;;;;;;;;;;;7.50;99.90;;;;;;5014087;28;19909;-71
2022/11/25 08:14:03;;;;;;;;;;;7.50;99.90;;;;;;5006688;28;19909;-73
2022/11/25 08:16:32;;;;;;;;;;;7.60;99.90;;;;;;5005311;28;19921;-72
2022/11/25 08:18:58;;;;;;;;;;;7.60;99.90;;;;;;5002294;28;19914;-70
2022/11/25 08:21:24;;;;;;;;;;;7.60;99.90;;;;;;5001961;28;20012;-71
2022/11/25 08:23:51;;;;;;;;;;;7.60;99.90;;;;;;5001761;28;20482;-73
2022/11/25 08:26:18;;;;;;;;;;;7.60;99.90;;;;;;4998846;28;19917;-72
2022/11/25 08:28:44;;;;;;;;;;;7.60;99.90;;;;;;5000747;28;19917;-72
2022/11/25 08:31:11;;;;;;;;;;;7.60;99.90;;;;;;4999022;28;20416;-71
2022/11/25 08:33:36;;;;;;;;;;;7.70;99.90;;;;;;4999374;28;20428;-72
2022/11/25 08:36:02;;;;;;;;;;;7.70;99.90;;;;;;5002035;28;19921;-72
2022/11/25 08:38:28;;;;;;;;;;;7.70;99.90;;;;;;5000922;28;20018;-72
2022/11/25 08:40:53;;;;;;;;;;;7.80;99.90;;;;;;4980575;28;19913;-73
2022/11/25 08:43:20;;;;;;;;;;;7.80;99.90;;;;;;4985313;28;19928;-72
2022/11/25 08:45:47;;;;;;;;;;;7.90;99.90;;;;;;5000766;28;19917;-72
2022/11/25 08:48:13;;;;;;;;;;;7.90;99.90;;;;;;4998887;28;19909;-72
2022/11/25 08:50:38;;;;;;;;;;;8.00;99.90;;;;;;4999749;28;19914;-72
2022/11/25 08:53:04;;;;;;;;;;;8.00;99.90;;;;;;5001422;28;19936;-71
2022/11/25 08:55:31;;;;;;;;;;;8.10;99.90;;;;;;4994060;28;20235;-72
2022/11/25 08:57:56;;;;;;;;;;;8.10;99.90;;;;;;5001433;28;19917;-72
2022/11/25 09:00:22;;;;;;;;;;;8.10;99.90;;;;;;4998571;28;20271;-73
2022/11/25 09:02:47;;;;;;;;;;;8.20;99.90;;;;;;4999917;28;19936;-73
2022/11/25 09:05:14;;;;;;;;;;;8.20;99.90;;;;;;5001034;28;19965;-72
2022/11/25 09:07:40;;;;;;;;;;;8.30;99.90;;;;;;5004850;28;20437;-73
2022/11/25 09:10:07;;;;;;;;;;;8.30;99.90;;;;;;5009251;28;20029;-72
2022/11/25 09:12:32;;;;;;;;;;;8.30;99.90;;;;;;5006146;28;19979;-72
2022/11/25 09:14:58;;;;;;;;;;;8.30;99.90;;;;;;5008689;28;20385;-71
2022/11/25 09:17:23;;;;;;;;;;;8.40;99.90;;;;;;5003629;28;19924;-73
2022/11/25 09:19:49;;;;;;;;;;;8.40;99.90;;;;;;4982326;28;20012;-73
2022/11/25 09:22:14;;;;;;;;;;;8.40;99.90;;;;;;4992500;28;19917;-72
2022/11/25 09:24:42;;;;;;;;;;;8.50;99.90;;;;;;5004088;28;19913;-71
2022/11/25 09:27:07;;;;;;;;;;;8.60;99.90;;;;;;4986999;28;19921;-72
2022/11/25 09:29:33;;;;;;;;;;;8.60;99.90;;;;;;5005450;28;19917;-71
2022/11/25 09:31:58;;;;;;;;;;;8.70;99.90;;;;;;5003103;28;19917;-71
2022/11/25 09:34:24;;;;;;;;;;;8.70;99.90;;;;;;5005487;28;20012;-73
2022/11/25 09:36:50;;;;;;;;;;;8.80;99.90;;;;;;5006876;28;19928;-73
2022/11/25 09:39:15;;;;;;;;;;;8.90;99.90;;;;;;5000941;28;19952;-73
2022/11/25 09:47:48;;;;;;;;;;;9.00;99.90;;;;;;4998560;28;20047;-73
2022/11/25 09:50:33;;;;;;;;;;;9.10;99.90;;;;;;4963641;28;20017;-72
2022/11/25 09:53:16;;;;;;;;;;;9.20;99.90;;;;;;5000835;28;19918;-73
2022/11/25 09:55:43;;;;;;;;;;;9.30;99.90;;;;;;4999873;28;19925;-74
2022/11/25 09:58:19;;;;;;;;;;;9.30;99.90;;;;;;4979851;28;19936;-72
2022/11/25 10:00:46;;;;;;;;;;;9.40;99.90;;;;;;5002414;28;19979;-72
2022/11/25 10:03:28;;;;;;;;;;;9.40;99.90;;;;;;4998265;28;19940;-72
2022/11/25 10:05:57;;;;;;;;;;;9.40;99.90;;;;;;5002640;28;19921;-73
2022/11/25 10:08:25;;;;;;;;;;;9.40;99.90;;;;;;4999605;28;19920;-74
2022/11/25 10:10:57;;;;;;;;;;;9.50;99.90;;;;;;5000382;28;20354;-70
2022/11/25 10:13:37;;;;;;;;;;;9.60;99.90;;;;;;4982900;28;19968;-74
2022/11/25 10:16:06;;;;;;;;;;;9.50;99.90;;;;;;5002187;28;19937;-72
2022/11/25 10:18:48;;;;;;;;;;;9.60;99.90;;;;;;4983550;28;19917;-73
2022/11/25 10:21:14;;;;;;;;;;;9.60;99.90;;;;;;5000188;28;19932;-73
2022/11/25 10:23:39;;;;;;;;;;;9.70;99.90;;;;;;4998563;28;19913;-73
2022/11/25 10:26:12;;;;;;;;;;;9.70;99.90;;;;;;4984112;28;19918;-73
2022/11/25 10:28:39;;;;;;;;;;;9.70;99.90;;;;;;5001779;28;19914;-73
2022/11/25 10:31:05;;;;;;;;;;;9.80;99.90;;;;;;4998614;28;20329;-73
2022/11/25 10:33:31;;;;;;;;;;;9.80;99.90;;;;;;4999403;28;19917;-71
2022/11/25 10:36:10;;;;;;;;;;;9.90;99.90;;;;;;4998514;28;20429;-72
2022/11/25 10:38:44;;;;;;;;;;;9.90;99.90;;;;;;5000208;28;19935;-73
2022/11/25 10:41:17;;;;;;;;;;;9.90;99.90;;;;;;4999725;28;20009;-72
2022/11/25 10:43:43;;;;;;;;;;;9.90;99.90;;;;;;5001468;28;19995;-73
2022/11/25 10:46:26;;;;;;;;;;;10.30;99.90;;;;;;4980420;28;19917;-74
2022/11/25 10:48:52;;;;;;;;;;;10.80;99.90;;;;;;4996257;28;19918;-73
2022/11/25 10:51:35;;;;;;;;;;;11.30;99.90;;;;;;5000489;28;20699;-74
2022/11/25 10:54:07;;;;;;;;;;;11.60;99.90;;;;;;5001797;28;20348;-72
2022/11/25 10:56:40;;;;;;;;;;;11.60;99.90;;;;;;4999744;28;19922;-73
2022/11/25 10:59:11;;;;;;;;;;;11.40;99.90;;;;;;4999508;28;19985;-73
2022/11/25 11:01:37;;;;;;;;;;;11.10;99.90;;;;;;4982380;28;20297;-73
2022/11/25 11:04:05;;;;;;;;;;;10.90;99.90;;;;;;4985117;28;19920;-71
2022/11/25 11:06:38;;;;;;;;;;;10.90;99.90;;;;;;5005247;28;19914;-73
2022/11/25 11:09:04;;;;;;;;;;;11.40;99.90;;;;;;5010255;28;19924;-74
2022/11/25 11:11:29;;;;;;;;;;;11.90;99.90;;;;;;5016077;28;20360;-73
2022/11/25 11:14:09;;;;;;;;;;;12.30;99.90;;;;;;5020710;28;19922;-74
2022/11/25 11:16:42;;;;;;;;;;;12.40;99.90;;;;;;5021937;28;19953;-73
2022/11/25 11:19:19;;;;;;;;;;;12.10;99.90;;;;;;4995598;28;19944;-74
2022/11/25 11:21:45;;;;;;;;;;;11.70;99.90;;;;;;5011458;28;19922;-71
2022/11/25 11:24:41;;;;;;;;;;;11.40;99.90;;;;;;4995126;28;19921;-73
2022/11/25 11:27:23;;;;;;;;;;;11.20;99.90;;;;;;4975871;28;19976;-73
2022/11/25 11:30:06;;;;;;;;;;;11.00;99.90;;;;;;5008303;28;19913;-70
2022/11/25 11:32:32;;;;;;;;;;;10.90;99.90;;;;;;5002729;28;19914;-70
2022/11/25 11:35:02;;;;;;;;;;;10.80;99.90;;;;;;5004600;28;19917;-70
2022/11/25 11:37:40;;;;;;;;;;;10.70;99.90;;;;;;5004630;28;19917;-70
2022/11/25 11:40:24;;;;;;;;;;;10.70;99.90;;;;;;4985809;28;19918;-71
2022/11/25 11:43:05;;;;;;;;;;;10.70;99.90;;;;;;4998978;28;20425;-70
2022/11/25 11:45:42;;;;;;;;;;;10.70;99.90;;;;;;4983371;28;20337;-70
2022/11/25 11:48:19;;;;;;;;;;;10.60;99.90;;;;;;4982405;28;20000;-71
2022/11/25 11:50:46;;;;;;;;;;;10.60;99.90;;;;;;5004053;28;19921;-70
2022/11/25 11:53:29;;;;;;;;;;;10.60;99.90;;;;;;5004524;28;19953;-70
2022/11/25 11:56:10;;;;;;;;;;;10.70;99.90;;;;;;4991444;28;20337;-72
2022/11/25 11:58:45;;;;;;;;;;;10.70;99.90;;;;;;4994357;28;20280;-72
2022/11/25 12:01:21;;;;;;;;;;;10.80;99.90;;;;;;5004349;28;19921;-73
2022/11/25 12:03:53;;;;;;;;;;;10.90;99.90;;;;;;5000311;28;19918;-71
2022/11/25 12:06:19;;;;;;;;;;;11.00;99.90;;;;;;5002684;28;19920;-70
2022/11/25 12:08:44;;;;;;;;;;;11.00;99.90;;;;;;4981567;28;19918;-70
2022/11/25 12:11:12;;;;;;;;;;;11.10;99.90;;;;;;5002262;28;20397;-71
2022/11/25 12:13:46;;;;;;;;;;;11.10;99.90;;;;;;5009755;28;19968;-70
2022/11/25 12:16:32;;;;;;;;;;;11.10;99.90;;;;;;5006767;28;20534;-73
2022/11/25 12:19:04;;;;;;;;;;;11.10;99.90;;;;;;5002604;28;19913;-73
2022/11/25 12:21:29;;;;;;;;;;;11.00;99.90;;;;;;4999878;28;19963;-72
2022/11/25 12:23:55;;;;;;;;;;;10.90;99.90;;;;;;5000787;28;19958;-73
2022/11/25 12:26:36;;;;;;;;;;;10.90;99.90;;;;;;4988520;28;19938;-72
2022/11/25 12:29:06;;;;;;;;;;;11.00;99.90;;;;;;4998132;28;20013;-73
2022/11/25 12:31:51;;;;;;;;;;;10.90;99.90;;;;;;5004727;28;19928;-72
2022/11/25 12:34:27;;;;;;;;;;;11.00;99.90;;;;;;5003370;28;19985;-72
2022/11/25 12:37:01;;;;;;;;;;;11.00;99.90;;;;;;4989351;28;19972;-74
2022/11/25 12:39:31;;;;;;;;;;;11.00;99.90;;;;;;5004224;28;20034;-72
2022/11/25 12:42:00;;;;;;;;;;;11.00;99.90;;;;;;5006667;28;19929;-73
2022/11/25 12:44:25;;;;;;;;;;;11.00;99.90;;;;;;4984890;28;20365;-73
2022/11/25 12:46:52;;;;;;;;;;;11.00;99.90;;;;;;4985592;28;19964;-72
2022/11/25 12:49:17;;;;;;;;;;;11.00;99.90;;;;;;5005556;28;20016;-72
2022/11/25 12:51:58;;;;;;;;;;;11.00;99.90;;;;;;5002753;28;19979;-74
2022/11/25 12:54:24;;;;;;;;;;;10.90;99.90;;;;;;5009553;28;20012;-73
2022/11/25 12:57:01;;;;;;;;;;;11.00;99.90;;;;;;4984634;28;19964;-73
2022/11/25 12:59:36;;;;;;;;;;;10.90;99.90;;;;;;5008698;28;21820;-74
2022/11/25 13:02:07;;;;;;;;;;;10.90;99.90;;;;;;5006062;28;20012;-77
2022/11/25 13:04:48;;;;;;;;;;;10.90;99.90;;;;;;4989829;28;19914;-76
2022/11/25 13:07:14;;;;;;;;;;;11.00;99.90;;;;;;5002871;28;19918;-72
2022/11/25 13:09:58;;;;;;;;;;;11.00;99.90;;;;;;5016642;28;19999;-76
2022/11/25 13:12:29;;;;;;;;;;;11.00;99.90;;;;;;4997004;28;19976;-73
2022/11/25 13:14:55;;;;;;;;;;;11.00;99.90;;;;;;4998646;28;19942;-76
2022/11/25 13:17:21;;;;;;;;;;;11.00;99.90;;;;;;5017291;28;19918;-75
2022/11/25 13:19:46;;;;;;;;;;;10.90;99.90;;;;;;5019051;28;19909;-76
2022/11/25 13:22:22;;;;;;;;;;;10.90;99.90;;;;;;5014635;28;19917;-75
2022/11/25 13:24:48;;;;;;;;;;;10.80;99.90;;;;;;5015443;28;19914;-74
2022/11/25 13:27:34;;;;;;;;;;;10.80;99.90;;;;;;5001318;28;19924;-74
2022/11/25 13:30:00;;;;;;;;;;;10.80;99.90;;;;;;5016759;28;19924;-75
2022/11/25 13:32:30;;;;;;;;;;;10.80;99.90;;;;;;5017492;28;19914;-75
2022/11/25 13:35:14;;;;;;;;;;;10.80;99.90;;;;;;5013815;28;19914;-73
2022/11/25 13:37:40;;;;;;;;;;;10.80;99.90;;;;;;5020449;28;19914;-74
2022/11/25 13:40:27;;;;;;;;;;;10.80;99.90;;;;;;4995473;28;19937;-77
2022/11/25 13:42:54;;;;;;;;;;;10.90;99.90;;;;;;5000194;28;19920;-77
2022/11/25 13:45:31;;;;;;;;;;;10.80;99.90;;;;;;5016172;28;19913;-76
2022/11/25 13:48:26;;;;;;;;;;;10.90;99.90;;;;;;5014561;28;19925;-77
2022/11/25 13:51:11;;;;;;;;;;;10.90;99.90;;;;;;4976707;28;19937;-77
2022/11/25 13:53:37;;;;;;;;;;;10.90;99.90;;;;;;5014975;28;19913;-77
2022/11/25 13:56:11;;;;;;;;;;;10.80;99.90;;;;;;5012767;28;19993;-75
2022/11/25 13:58:37;;;;;;;;;;;10.80;99.90;;;;;;5008565;28;20536;-77
2022/11/25 14:01:04;;;;;;;;;;;10.90;99.90;;;;;;5020158;28;19928;-75
2022/11/25 14:03:29;;;;;;;;;;;10.80;99.90;;;;;;5013096;28;20028;-77
2022/11/25 14:06:07;;;;;;;;;;;10.80;99.90;;;;;;5018975;28;19921;-78
2022/11/25 14:08:38;;;;;;;;;;;10.70;99.90;;;;;;5014058;28;20535;-74
2022/11/25 14:11:06;;;;;;;;;;;10.70;99.90;;;;;;4997332;28;19913;-76
2022/11/25 14:13:50;;;;;;;;;;;10.70;99.90;;;;;;5020704;28;19964;-78
2022/11/25 14:16:19;;;;;;;;;;;10.70;99.90;;;;;;5013020;28;20271;-77
2022/11/25 14:18:53;;;;;;;;;;;10.70;99.90;;;;;;5018569;28;19914;-76
2022/11/25 14:21:37;;;;;;;;;;;10.70;99.90;;;;;;5024198;28;19917;-78
2022/11/25 14:24:41;;;;;;;;;;;10.80;99.90;;;;;;4992806;28;19965;-77
2022/11/25 14:27:15;;;;;;;;;;;10.80;99.90;;;;;;4941142;29;20339;-76
2022/11/25 14:29:44;;;;;;;;;;;10.80;99.90;;;;;;4939571;29;19914;-77
2022/11/25 14:32:13;;;;;;;;;;;10.90;99.90;;;;;;4977389;28;19925;-76
2022/11/25 14:34:40;;;;;;;;;;;10.90;99.90;;;;;;5019701;28;19937;-78
2022/11/25 14:37:12;;;;;;;;;;;10.90;99.90;;;;;;4998789;28;19918;-77
2022/11/25 14:39:51;;;;;;;;;;;10.90;99.90;;;;;;5007096;28;19914;-76
2022/11/25 14:42:19;;;;;;;;;;;10.90;99.90;;;;;;5007231;28;19948;-75
2022/11/25 14:44:54;;;;;;;;;;;10.80;99.90;;;;;;4990052;28;20359;-76
2022/11/25 14:47:32;;;;;;;;;;;10.80;99.90;;;;;;5005091;28;19921;-78